Time;durP1;ratioP1;P1;durP2;ratioP2;P2;SDS_P1;SDS_P2;PMS_P1;PMS_P2;Temp;Humidity;BMP_temperature;BMP_pressure;BME280_temperature;BME280_humidity;BME280_pressure;Samples;Min_cycle;Max_cycle;Signal;HPM_P1;HPM_P2
2021/12/29 06:00:37;;;;;;;3.67;0.73;;;9.20;99.90;;;;;;5822444;23;20703;-78
2021/12/29 06:03:04;;;;;;;4.28;0.70;;;9.20;99.90;;;;;;4947015;28;20299;-80
2021/12/29 06:05:32;;;;;;;4.15;0.80;;;9.20;99.90;;;;;;4965851;28;20415;-81
2021/12/29 06:07:59;;;;;;;4.20;0.80;;;9.20;99.90;;;;;;4967679;28;20047;-81
2021/12/29 06:10:26;;;;;;;4.40;0.90;;;9.00;99.90;;;;;;4960654;28;20047;-80
2021/12/29 06:12:53;;;;;;;3.53;0.70;;;9.10;99.90;;;;;;4966878;28;20047;-80
2021/12/29 06:15:20;;;;;;;3.47;0.80;;;9.10;99.90;;;;;;4966493;28;20074;-80
2021/12/29 06:17:49;;;;;;;6.85;0.80;;;9.00;99.90;;;;;;4961588;28;20050;-78
2021/12/29 06:20:16;;;;;;;3.97;0.85;;;9.00;99.90;;;;;;4966559;28;20239;-81
2021/12/29 06:22:44;;;;;;;4.78;0.70;;;9.00;99.90;;;;;;4966332;28;20047;-81
2021/12/29 06:25:15;;;;;;;4.20;0.60;;;9.00;99.90;;;;;;4965725;28;20043;-81
2021/12/29 06:27:42;;;;;;;3.65;0.70;;;9.00;99.90;;;;;;4965330;28;20404;-81
2021/12/29 06:30:13;;;;;;;3.92;0.90;;;9.10;99.90;;;;;;4960479;28;20047;-82
2021/12/29 06:32:42;;;;;;;3.22;0.65;;;9.00;99.90;;;;;;4966812;28;20065;-81
2021/12/29 06:35:13;;;;;;;4.43;0.80;;;9.10;99.90;;;;;;4966368;28;20047;-82
2021/12/29 06:37:40;;;;;;;4.50;0.73;;;9.00;99.90;;;;;;4962241;28;20038;-81
2021/12/29 06:40:09;;;;;;;4.88;1.10;;;9.00;99.90;;;;;;4965199;28;20077;-81
2021/12/29 06:42:37;;;;;;;3.22;0.70;;;9.00;99.90;;;;;;4966830;28;20039;-81
2021/12/29 06:45:06;;;;;;;3.55;0.77;;;9.00;99.90;;;;;;4966415;28;20062;-81
2021/12/29 06:47:33;;;;;;;8.02;0.93;;;9.00;99.90;;;;;;4964173;28;20053;-81
2021/12/29 06:50:00;;;;;;;3.83;0.70;;;9.00;99.90;;;;;;4963750;28;20081;-81
2021/12/29 06:52:29;;;;;;;3.38;0.85;;;9.00;99.90;;;;;;4966074;28;20484;-81
2021/12/29 06:54:56;;;;;;;3.63;0.85;;;8.90;99.90;;;;;;4966584;28;20409;-81
2021/12/29 06:57:26;;;;;;;3.97;0.90;;;8.90;99.90;;;;;;4964950;28;20059;-80
2021/12/29 06:59:53;;;;;;;3.95;0.63;;;8.90;99.90;;;;;;4963095;28;20050;-81
2021/12/29 07:02:20;;;;;;;5.97;0.85;;;8.90;99.90;;;;;;4963810;28;20055;-84
2021/12/29 07:04:47;;;;;;;3.25;0.80;;;9.00;99.90;;;;;;4949512;29;20055;-82
2021/12/29 07:07:15;;;;;;;7.38;0.90;;;8.90;99.90;;;;;;4964067;28;20047;-83
2021/12/29 07:09:43;;;;;;;3.05;0.65;;;8.90;99.90;;;;;;4966001;28;20396;-85
2021/12/29 07:12:11;;;;;;;3.10;0.77;;;9.00;99.90;;;;;;4957923;28;20051;-84
2021/12/29 07:14:39;;;;;;;4.90;1.02;;;9.00;99.90;;;;;;4963446;28;20124;-82
2021/12/29 07:17:07;;;;;;;3.38;1.10;;;9.10;99.90;;;;;;4960571;28;20047;-79
2021/12/29 07:19:34;;;;;;;4.32;0.90;;;9.10;99.90;;;;;;4966295;28;20047;-82
2021/12/29 07:22:05;;;;;;;3.38;0.70;;;9.10;99.90;;;;;;4955031;28;20055;-81
2021/12/29 07:24:35;;;;;;;4.38;0.98;;;9.10;99.90;;;;;;4956983;28;20058;-81
2021/12/29 07:27:04;;;;;;;4.20;0.95;;;9.10;99.90;;;;;;4964075;28;20134;-78
2021/12/29 07:29:32;;;;;;;5.97;0.90;;;9.00;99.90;;;;;;4956988;28;20047;-83
2021/12/29 07:32:01;;;;;;;3.42;0.70;;;9.00;99.90;;;;;;4954640;28;20282;-80
2021/12/29 07:34:28;;;;;;;4.03;1.08;;;9.10;99.90;;;;;;4956845;28;20040;-81
2021/12/29 07:36:56;;;;;;;3.35;0.77;;;9.10;99.90;;;;;;4956060;28;20489;-80
2021/12/29 07:39:24;;;;;;;5.00;1.35;;;9.00;99.90;;;;;;4964841;28;20135;-80
2021/12/29 07:41:52;;;;;;;5.60;0.75;;;9.10;99.90;;;;;;4958180;28;20053;-81
2021/12/29 07:44:21;;;;;;;3.05;0.85;;;9.00;99.90;;;;;;4956080;28;20412;-79
2021/12/29 07:46:53;;;;;;;3.45;0.80;;;9.10;99.90;;;;;;4957916;28;20484;-81
2021/12/29 07:49:20;;;;;;;3.58;1.08;;;9.00;99.90;;;;;;4955271;28;20089;-78
2021/12/29 07:51:48;;;;;;;2.72;0.70;;;9.10;99.90;;;;;;4954363;28;20043;-80
2021/12/29 07:54:15;;;;;;;3.92;0.80;;;9.10;99.90;;;;;;4954800;28;20471;-80
2021/12/29 07:56:46;;;;;;;5.13;1.55;;;9.00;99.90;;;;;;4957213;28;20053;-81
2021/12/29 07:59:14;;;;;;;4.15;1.30;;;9.00;99.90;;;;;;4964824;28;20054;-81
2021/12/29 08:01:45;;;;;;;3.38;0.90;;;9.00;99.90;;;;;;4962699;28;20138;-81
2021/12/29 08:04:14;;;;;;;5.85;0.95;;;9.00;99.90;;;;;;4954705;28;20075;-80
2021/12/29 08:06:41;;;;;;;3.40;0.82;;;9.10;99.90;;;;;;4960582;28;20054;-81
2021/12/29 08:09:09;;;;;;;3.45;1.00;;;9.00;99.90;;;;;;4960039;28;20087;-83
2021/12/29 08:11:37;;;;;;;3.35;0.80;;;9.10;99.90;;;;;;4964265;28;20039;-81
2021/12/29 08:14:05;;;;;;;2.20;0.68;;;9.10;99.90;;;;;;4955453;28;20138;-83
2021/12/29 08:16:32;;;;;;;3.35;0.70;;;9.10;99.90;;;;;;4962941;28;20050;-82
2021/12/29 08:19:00;;;;;;;3.83;0.90;;;9.20;99.90;;;;;;4965276;28;20047;-82
2021/12/29 08:21:27;;;;;;;5.35;1.20;;;9.10;99.90;;;;;;4962930;28;20043;-81
2021/12/29 08:23:55;;;;;;;3.78;1.00;;;9.10;99.90;;;;;;4960383;28;20054;-82
2021/12/29 08:26:23;;;;;;;3.70;1.00;;;9.20;99.90;;;;;;4965045;28;20102;-81
2021/12/29 08:28:51;;;;;;;4.00;0.80;;;9.20;99.90;;;;;;4959559;28;20646;-80
2021/12/29 08:31:18;;;;;;;3.08;0.80;;;9.20;99.90;;;;;;4970548;28;20082;-81
2021/12/29 08:33:45;;;;;;;3.78;0.82;;;9.30;99.90;;;;;;4965736;28;20134;-81
2021/12/29 08:36:14;;;;;;;5.28;1.13;;;9.30;99.90;;;;;;4963958;28;20053;-81
2021/12/29 08:38:41;;;;;;;3.17;1.23;;;9.40;99.90;;;;;;4956985;28;20118;-81
2021/12/29 08:41:12;;;;;;;3.53;0.88;;;9.30;99.90;;;;;;4965076;28;20126;-81
2021/12/29 08:43:39;;;;;;;4.65;1.10;;;9.30;99.90;;;;;;4961516;28;20457;-80
2021/12/29 08:46:07;;;;;;;10.60;3.80;;;9.30;99.90;;;;;;4963755;28;20051;-80
2021/12/29 08:48:35;;;;;;;10.63;3.47;;;9.30;99.90;;;;;;4963474;28;20464;-81
2021/12/29 08:51:03;;;;;;;19.65;8.23;;;9.30;99.90;;;;;;4965472;28;20061;-79
2021/12/29 08:53:32;;;;;;;11.18;3.92;;;9.40;99.90;;;;;;4963729;28;20050;-79
2021/12/29 08:55:59;;;;;;;3.88;1.23;;;9.40;99.90;;;;;;4961201;28;20439;-79
2021/12/29 08:58:28;;;;;;;2.70;0.88;;;9.40;99.90;;;;;;4964952;28;20133;-79
2021/12/29 09:00:59;;;;;;;4.05;0.88;;;9.50;99.90;;;;;;4957776;28;20126;-79
2021/12/29 09:03:26;;;;;;;4.22;1.10;;;9.60;99.90;;;;;;4959620;28;20045;-80
2021/12/29 09:05:54;;;;;;;3.33;1.00;;;9.40;99.90;;;;;;4969681;28;20102;-80
2021/12/29 09:08:21;;;;;;;5.35;1.10;;;9.50;99.90;;;;;;4961318;28;20126;-79
2021/12/29 09:10:50;;;;;;;3.42;1.08;;;9.60;99.90;;;;;;4964182;28;20126;-80
2021/12/29 09:13:17;;;;;;;4.35;1.00;;;9.50;99.90;;;;;;4967512;28;20051;-80
2021/12/29 09:15:45;;;;;;;4.97;1.10;;;9.50;99.90;;;;;;4965093;28;20066;-80
2021/12/29 09:18:12;;;;;;;4.70;1.20;;;9.70;99.90;;;;;;4957355;28;20142;-80
2021/12/29 09:20:45;;;;;;;3.55;1.00;;;9.60;99.90;;;;;;4958115;28;20078;-81
2021/12/29 09:23:15;;;;;;;3.67;1.10;;;9.60;99.90;;;;;;4960716;28;20050;-80
2021/12/29 09:25:46;;;;;;;3.15;0.85;;;9.70;99.90;;;;;;4961429;28;20481;-81
2021/12/29 09:28:26;;;;;;;6.60;1.15;;;9.60;99.90;;;;;;4966222;28;20073;-80
2021/12/29 09:30:53;;;;;;;2.80;0.82;;;9.70;99.90;;;;;;4956928;28;20461;-80
2021/12/29 09:33:21;;;;;;;4.13;0.90;;;9.60;99.90;;;;;;4971368;28;20058;-80
2021/12/29 09:35:52;;;;;;;3.38;0.80;;;9.70;99.90;;;;;;4967562;28;20049;-80
2021/12/29 09:38:20;;;;;;;3.75;1.15;;;9.80;99.90;;;;;;4962818;28;20054;-81
2021/12/29 09:40:49;;;;;;;4.25;1.05;;;9.90;99.90;;;;;;4964488;28;20074;-80
2021/12/29 09:43:19;;;;;;;4.05;0.90;;;9.80;99.90;;;;;;4964462;28;20049;-80
2021/12/29 09:45:48;;;;;;;3.55;1.17;;;9.90;99.90;;;;;;4957736;28;20047;-80
2021/12/29 09:48:16;;;;;;;6.53;1.23;;;10.00;99.90;;;;;;4968326;28;20551;-80
2021/12/29 09:50:45;;;;;;;4.40;1.27;;;10.00;99.90;;;;;;4967435;28;20498;-83
2021/12/29 09:53:13;;;;;;;4.00;1.02;;;10.00;99.90;;;;;;4967205;28;20377;-86
2021/12/29 09:55:41;;;;;;;4.80;1.20;;;10.10;99.90;;;;;;4962109;28;20047;-83
2021/12/29 09:58:09;;;;;;;4.15;1.55;;;10.10;99.90;;;;;;4955321;28;20051;-82
2021/12/29 10:00:41;;;;;;;4.68;1.08;;;10.20;99.90;;;;;;4959654;28;20062;-84
2021/12/29 10:03:12;;;;;;;4.53;1.25;;;10.20;99.90;;;;;;4961150;28;20490;-83
2021/12/29 10:05:43;;;;;;;4.25;0.98;;;10.30;99.90;;;;;;4965401;28;20043;-83
2021/12/29 10:08:14;;;;;;;5.13;0.93;;;10.30;99.90;;;;;;4962958;28;20138;-84
2021/12/29 10:10:46;;;;;;;4.47;0.82;;;10.30;99.90;;;;;;4965234;28;20047;-87
2021/12/29 10:13:14;;;;;;;5.22;0.85;;;10.30;99.90;;;;;;4959118;28;20437;-81
2021/12/29 10:15:46;;;;;;;4.78;1.00;;;10.30;99.90;;;;;;4964980;28;20393;-81
2021/12/29 10:18:15;;;;;;;5.18;1.00;;;10.40;99.90;;;;;;4960255;28;20053;-81
2021/12/29 10:20:49;;;;;;;2.72;0.88;;;10.50;99.90;;;;;;4957825;28;20039;-81
2021/12/29 10:23:22;;;;;;;11.93;4.60;;;10.40;99.90;;;;;;4961756;28;20948;-81
2021/12/29 10:25:50;;;;;;;14.55;6.22;;;10.50;99.90;;;;;;4965052;28;20050;-83
2021/12/29 10:28:27;;;;;;;11.68;4.80;;;10.50;99.90;;;;;;4952562;29;20053;-82
2021/12/29 10:31:13;;;;;;;4.97;0.98;;;10.50;99.90;;;;;;4960228;28;20043;-83
2021/12/29 10:33:43;;;;;;;4.82;1.48;;;10.50;99.90;;;;;;4960078;28;20054;-81
2021/12/29 10:36:18;;;;;;;3.95;0.90;;;10.60;99.90;;;;;;4959209;28;20044;-80
2021/12/29 10:38:52;;;;;;;5.20;1.05;;;10.60;99.90;;;;;;4972257;28;20042;-81
2021/12/29 10:41:19;;;;;;;3.85;0.98;;;10.50;99.90;;;;;;4960509;28;20457;-80
2021/12/29 10:43:57;;;;;;;3.97;0.90;;;10.60;99.90;;;;;;4960258;28;20053;-80
2021/12/29 10:46:31;;;;;;;3.30;0.93;;;10.60;99.90;;;;;;4958912;28;20143;-81
2021/12/29 10:49:00;;;;;;;2.67;0.80;;;10.70;99.90;;;;;;4955705;28;20058;-81
2021/12/29 10:51:31;;;;;;;3.50;1.30;;;10.70;99.90;;;;;;4964846;28;20047;-81
2021/12/29 10:54:09;;;;;;;3.75;0.88;;;10.60;99.90;;;;;;4965084;28;20055;-80
2021/12/29 10:56:37;;;;;;;3.97;0.80;;;10.70;99.90;;;;;;4953606;28;20061;-80
2021/12/29 10:59:19;;;;;;;3.35;0.98;;;10.60;99.90;;;;;;4952058;29;20054;-80
2021/12/29 11:01:48;;;;;;;2.28;0.73;;;10.60;99.90;;;;;;4953409;29;20066;-79
2021/12/29 11:04:17;;;;;;;3.78;0.95;;;10.70;99.90;;;;;;4958839;28;20050;-80
2021/12/29 11:06:47;;;;;;;4.55;0.90;;;10.80;99.90;;;;;;4962560;28;20047;-79
2021/12/29 11:09:16;;;;;;;3.38;0.90;;;10.70;99.90;;;;;;4960284;28;20515;-78
2021/12/29 11:11:46;;;;;;;6.30;1.20;;;10.70;99.90;;;;;;4961025;28;20106;-78
2021/12/29 11:14:21;;;;;;;4.38;1.08;;;10.80;99.90;;;;;;4961534;28;20129;-78
2021/12/29 11:17:02;;;;;;;3.22;0.90;;;10.70;99.90;;;;;;4966371;28;20042;-80
2021/12/29 11:19:29;;;;;;;2.80;0.90;;;10.70;99.90;;;;;;4958736;28;20417;-82
2021/12/29 11:22:11;;;;;;;4.78;1.10;;;10.80;99.90;;;;;;4963264;28;20038;-82
2021/12/29 11:24:39;;;;;;;5.63;1.20;;;10.80;99.90;;;;;;4961160;28;20058;-80
2021/12/29 11:27:13;;;;;;;4.35;1.13;;;10.70;99.90;;;;;;4969124;28;20073;-78
2021/12/29 11:29:54;;;;;;;3.67;0.95;;;10.90;99.90;;;;;;4958228;28;20125;-81
2021/12/29 11:32:29;;;;;;;3.35;0.98;;;10.90;99.90;;;;;;4963715;28;20046;-80
2021/12/29 11:35:08;;;;;;;3.00;0.90;;;10.90;99.90;;;;;;4972922;28;20142;-80
2021/12/29 11:37:38;;;;;;;3.88;0.90;;;10.90;99.90;;;;;;4957169;28;20408;-79
2021/12/29 11:40:08;;;;;;;5.85;1.33;;;10.90;99.90;;;;;;4960945;28;20050;-80
2021/12/29 11:42:35;;;;;;;7.80;1.10;;;11.00;99.90;;;;;;4959398;28;20043;-80
2021/12/29 11:45:03;;;;;;;4.05;1.00;;;10.90;99.90;;;;;;4962075;28;20054;-80
2021/12/29 11:47:32;;;;;;;4.75;1.17;;;10.90;99.90;;;;;;4958618;28;20537;-79
2021/12/29 11:49:59;;;;;;;4.78;1.17;;;11.00;99.90;;;;;;4940937;28;20478;-80
2021/12/29 11:53:00;;;;;;;4.80;0.80;;;11.00;99.90;;;;;;4964768;28;20060;-81
2021/12/29 11:55:31;;;;;;;2.83;0.90;;;11.00;99.90;;;;;;4948622;28;20047;-80
2021/12/29 11:58:10;;;;;;;5.75;1.48;;;11.00;99.90;;;;;;4963204;28;20047;-81
2021/12/29 12:00:38;;;;;;;4.25;1.30;;;11.00;99.90;;;;;;4954800;28;20082;-80
2021/12/29 12:03:12;;;;;;;6.10;1.17;;;11.00;99.90;;;;;;4955293;28;20129;-79
2021/12/29 12:05:41;;;;;;;5.65;1.30;;;11.00;99.90;;;;;;4956496;28;20482;-80
2021/12/29 12:08:12;;;;;;;6.80;1.30;;;11.10;99.90;;;;;;4960168;28;20139;-80
2021/12/29 12:10:40;;;;;;;5.75;1.48;;;11.10;99.90;;;;;;4961910;28;20039;-80
2021/12/29 12:13:25;;;;;;;5.32;1.50;;;11.10;99.90;;;;;;4957607;28;20051;-80
2021/12/29 12:15:54;;;;;;;6.07;1.35;;;11.10;99.90;;;;;;4957606;28;20042;-80
2021/12/29 12:18:22;;;;;;;4.95;1.30;;;11.10;99.90;;;;;;4957229;28;20051;-80
2021/12/29 12:20:51;;;;;;;6.28;1.67;;;11.10;99.90;;;;;;4962244;28;20042;-80
2021/12/29 12:23:28;;;;;;;4.40;1.48;;;11.20;99.90;;;;;;4961059;28;20058;-80
2021/12/29 12:25:56;;;;;;;6.38;1.40;;;11.10;99.90;;;;;;4961245;28;20533;-81
2021/12/29 12:28:25;;;;;;;5.85;1.42;;;11.20;99.90;;;;;;4953307;28;20047;-80
2021/12/29 12:30:55;;;;;;;4.47;1.70;;;11.10;99.90;;;;;;4956009;28;20146;-80
2021/12/29 12:33:29;;;;;;;5.68;2.13;;;11.20;99.90;;;;;;4966018;28;20135;-84
2021/12/29 12:36:07;;;;;;;8.35;1.77;;;11.20;99.90;;;;;;4962816;28;20521;-81
2021/12/29 12:38:36;;;;;;;7.10;1.85;;;11.20;99.90;;;;;;4955998;28;20057;-82
2021/12/29 12:41:07;;;;;;;7.95;2.00;;;11.30;99.90;;;;;;4958647;28;20525;-83
2021/12/29 12:43:35;;;;;;;6.22;1.90;;;11.20;99.90;;;;;;4955128;28;20057;-79
2021/12/29 12:46:03;;;;;;;6.47;1.70;;;11.20;99.90;;;;;;4957484;28;20693;-80
2021/12/29 12:48:35;;;;;;;6.40;1.90;;;11.20;99.90;;;;;;4957872;28;20065;-80
2021/12/29 12:51:15;;;;;;;5.50;1.75;;;11.10;99.90;;;;;;4954683;28;20078;-81
2021/12/29 12:53:42;;;;;;;6.78;1.92;;;11.10;99.90;;;;;;4958177;28;20098;-79
2021/12/29 12:56:14;;;;;;;8.75;1.83;;;11.20;99.90;;;;;;4963212;28;20828;-79
2021/12/29 12:58:44;;;;;;;10.32;1.70;;;11.30;99.90;;;;;;4959485;28;20051;-80
2021/12/29 13:01:16;;;;;;;7.45;1.60;;;11.20;99.90;;;;;;4962588;28;20413;-80
2021/12/29 13:03:45;;;;;;;5.70;1.60;;;11.30;99.90;;;;;;4950993;28;20065;-80
2021/12/29 13:06:15;;;;;;;7.13;1.90;;;11.20;99.90;;;;;;4960652;28;20058;-79
2021/12/29 13:08:46;;;;;;;7.00;1.70;;;11.20;99.90;;;;;;4964067;28;20042;-78
2021/12/29 13:11:17;;;;;;;6.70;1.65;;;11.20;99.90;;;;;;4956668;28;20126;-81
2021/12/29 13:13:47;;;;;;;7.13;1.60;;;11.20;99.90;;;;;;4963650;28;20061;-82
2021/12/29 13:16:20;;;;;;;6.60;1.92;;;11.10;99.90;;;;;;4960494;28;20133;-81
2021/12/29 13:18:50;;;;;;;5.45;1.70;;;11.20;99.90;;;;;;4954585;28;20044;-83
2021/12/29 13:21:24;;;;;;;6.90;2.05;;;11.10;99.90;;;;;;4962561;28;20057;-87
2021/12/29 13:23:52;;;;;;;7.05;1.80;;;11.10;99.90;;;;;;4965176;28;20078;-81
2021/12/29 13:26:19;;;;;;;7.35;1.92;;;11.10;99.90;;;;;;4963272;28;20410;-81
2021/12/29 13:28:46;;;;;;;5.88;1.70;;;11.10;99.90;;;;;;4960210;28;20050;-80
2021/12/29 13:31:18;;;;;;;8.55;2.10;;;11.20;99.90;;;;;;4961548;28;20053;-83
2021/12/29 13:33:53;;;;;;;6.82;1.88;;;11.10;99.90;;;;;;4961536;28;20055;-81
2021/12/29 13:36:22;;;;;;;8.07;1.75;;;11.20;99.90;;;;;;4964014;28;20079;-80
2021/12/29 13:38:53;;;;;;;6.05;1.80;;;11.20;99.90;;;;;;4968534;28;20506;-79
2021/12/29 13:41:23;;;;;;;7.40;1.63;;;11.30;99.90;;;;;;4964145;28;20038;-82
2021/12/29 13:43:54;;;;;;;5.72;2.00;;;11.20;99.90;;;;;;4952319;29;20050;-80
2021/12/29 13:46:25;;;;;;;6.28;2.08;;;11.20;99.90;;;;;;4954285;28;20109;-81
2021/12/29 13:48:59;;;;;;;6.78;2.00;;;11.20;99.90;;;;;;4967731;28;20055;-83
2021/12/29 13:51:30;;;;;;;7.30;2.35;;;11.20;99.90;;;;;;4972327;28;20065;-82
2021/12/29 13:54:03;;;;;;;6.43;2.00;;;11.30;99.90;;;;;;4960023;28;20571;-81
2021/12/29 13:56:36;;;;;;;6.78;2.35;;;11.20;99.90;;;;;;4965292;28;20065;-82
2021/12/29 13:59:07;;;;;;;7.20;2.10;;;11.20;99.90;;;;;;4966778;28;20475;-82
2021/12/29 14:01:37;;;;;;;5.90;1.70;;;11.10;99.90;;;;;;4955432;28;20055;-82
2021/12/29 14:04:06;;;;;;;5.65;2.20;;;11.10;99.90;;;;;;4955210;28;20047;-82
2021/12/29 14:06:33;;;;;;;6.30;1.80;;;11.10;99.90;;;;;;4972036;28;20144;-82
2021/12/29 14:09:01;;;;;;;5.75;1.70;;;11.00;99.90;;;;;;4970478;28;20125;-81
2021/12/29 14:11:29;;;;;;;5.20;2.08;;;11.10;99.90;;;;;;4969880;28;20141;-82
2021/12/29 14:14:02;;;;;;;5.75;1.50;;;11.00;99.90;;;;;;4952234;29;20394;-81
2021/12/29 14:16:31;;;;;;;5.18;1.60;;;11.10;99.90;;;;;;4954334;28;20110;-81
2021/12/29 14:19:01;;;;;;;5.35;1.65;;;11.10;99.90;;;;;;4952335;28;20054;-81
2021/12/29 14:21:34;;;;;;;5.00;1.35;;;11.10;99.90;;;;;;4952097;28;20102;-80
2021/12/29 14:24:04;;;;;;;4.55;1.50;;;11.10;99.90;;;;;;4951861;29;20043;-80
2021/12/29 14:26:37;;;;;;;4.68;1.42;;;11.00;99.90;;;;;;4966438;28;20133;-80
2021/12/29 14:29:05;;;;;;;6.13;1.50;;;11.00;99.90;;;;;;4952454;29;20058;-81
2021/12/29 14:31:37;;;;;;;5.47;1.30;;;10.90;99.90;;;;;;4959118;28;20081;-81
2021/12/29 14:34:05;;;;;;;4.03;1.20;;;11.00;99.90;;;;;;4971306;28;20393;-82
2021/12/29 14:36:42;;;;;;;3.85;1.30;;;10.90;99.90;;;;;;4970810;28;20047;-81
2021/12/29 14:39:14;;;;;;;9.90;3.90;;;10.80;99.90;;;;;;4960408;28;20133;-81
2021/12/29 14:41:42;;;;;;;8.63;3.20;;;10.90;99.90;;;;;;4952021;29;20500;-81
2021/12/29 14:44:16;;;;;;;8.90;3.30;;;10.90;99.90;;;;;;4952395;28;20098;-82
2021/12/29 14:46:52;;;;;;;4.78;1.50;;;10.90;99.90;;;;;;4964520;28;20051;-82
2021/12/29 14:49:27;;;;;;;5.28;1.52;;;10.80;99.90;;;;;;4952691;28;20057;-81
2021/12/29 14:51:58;;;;;;;3.55;1.20;;;10.80;99.90;;;;;;4958114;28;20392;-81
2021/12/29 14:54:34;;;;;;;4.78;1.30;;;10.70;99.90;;;;;;4971210;28;20142;-81
2021/12/29 14:57:01;;;;;;;4.85;1.70;;;10.60;99.90;;;;;;4971400;28;20435;-81
2021/12/29 14:59:33;;;;;;;7.05;2.00;;;10.70;99.90;;;;;;4958831;28;20519;-79
2021/12/29 15:02:11;;;;;;;5.35;1.83;;;10.70;99.90;;;;;;4970484;28;20055;-83
2021/12/29 15:04:40;;;;;;;4.47;1.65;;;10.70;99.90;;;;;;4959970;28;20057;-81
2021/12/29 15:07:20;;;;;;;4.65;1.70;;;10.60;99.90;;;;;;4951593;28;20584;-81
2021/12/29 15:10:01;;;;;;;5.22;1.98;;;10.60;99.90;;;;;;4951541;28;20134;-81
2021/12/29 15:12:30;;;;;;;4.25;1.80;;;10.70;99.90;;;;;;4962716;28;20050;-81
2021/12/29 15:14:59;;;;;;;4.90;2.08;;;10.70;99.90;;;;;;4970425;28;20046;-83
2021/12/29 15:17:26;;;;;;;8.15;2.42;;;10.50;99.90;;;;;;4970585;28;20051;-81
2021/12/29 15:19:54;;;;;;;6.40;2.35;;;10.60;99.90;;;;;;4970594;28;20415;-81
2021/12/29 15:22:23;;;;;;;6.07;2.05;;;10.60;99.90;;;;;;4970846;28;20138;-80
2021/12/29 15:24:50;;;;;;;4.95;1.98;;;10.50;99.90;;;;;;4971018;28;20396;-82
2021/12/29 15:27:17;;;;;;;5.13;1.92;;;10.50;99.90;;;;;;4970398;28;20047;-81
2021/12/29 15:29:44;;;;;;;5.55;2.05;;;10.60;99.90;;;;;;4970581;28;20134;-82
2021/12/29 15:32:11;;;;;;;5.22;2.10;;;10.60;99.90;;;;;;4970492;28;20503;-81
2021/12/29 15:34:39;;;;;;;5.40;2.13;;;10.40;99.90;;;;;;4970609;28;20145;-80
2021/12/29 15:37:07;;;;;;;5.00;2.25;;;10.50;99.90;;;;;;4970533;28;20054;-80
2021/12/29 15:39:35;;;;;;;6.28;2.33;;;10.50;99.90;;;;;;4970011;28;20050;-80
2021/12/29 15:42:03;;;;;;;5.47;1.98;;;10.40;99.90;;;;;;4951233;28;20043;-81
2021/12/29 15:44:30;;;;;;;5.30;2.20;;;10.40;99.90;;;;;;4951141;28;20055;-82
2021/12/29 15:46:58;;;;;;;4.43;1.90;;;10.30;99.90;;;;;;4951089;28;20055;-82
2021/12/29 15:49:25;;;;;;;4.97;2.20;;;10.30;99.90;;;;;;4951075;29;20070;-81
2021/12/29 15:51:53;;;;;;;5.60;1.90;;;10.30;99.90;;;;;;4951020;29;20051;-81
2021/12/29 15:54:20;;;;;;;5.35;2.00;;;10.30;99.90;;;;;;4950417;29;20102;-79
2021/12/29 15:56:49;;;;;;;4.80;1.90;;;10.30;99.90;;;;;;4951332;29;20047;-79
2021/12/29 15:59:16;;;;;;;4.72;1.90;;;10.20;99.90;;;;;;4961843;28;20047;-80
2021/12/29 16:01:43;;;;;;;3.90;1.42;;;10.20;99.90;;;;;;4967173;28;20047;-80
2021/12/29 16:04:10;;;;;;;5.20;1.77;;;10.20;99.90;;;;;;4953568;28;20596;-80
2021/12/29 16:06:37;;;;;;;4.53;1.60;;;10.30;99.90;;;;;;4958678;28;20054;-79
2021/12/29 16:09:05;;;;;;;6.00;2.00;;;10.30;99.90;;;;;;4950819;28;20058;-79
2021/12/29 16:11:32;;;;;;;5.07;2.30;;;10.50;99.90;;;;;;4953633;28;20382;-78
2021/12/29 16:14:00;;;;;;;4.82;2.03;;;10.40;99.90;;;;;;4950526;29;20440;-79
2021/12/29 16:16:27;;;;;;;4.78;1.85;;;10.40;99.90;;;;;;4950809;29;20055;-80
2021/12/29 16:18:54;;;;;;;5.55;1.95;;;10.50;99.90;;;;;;4950907;29;20497;-80
2021/12/29 16:21:21;;;;;;;6.55;2.38;;;10.50;99.90;;;;;;4949994;29;20386;-81
2021/12/29 16:23:50;;;;;;;6.75;2.47;;;10.50;99.90;;;;;;4957369;28;20129;-80
2021/12/29 16:26:18;;;;;;;4.78;2.00;;;10.60;99.90;;;;;;4969547;28;20046;-79
2021/12/29 16:28:45;;;;;;;5.53;1.88;;;10.50;99.90;;;;;;4970131;28;20047;-79
2021/12/29 16:31:13;;;;;;;3.88;1.70;;;10.50;99.90;;;;;;4969748;28;20511;-79
2021/12/29 16:33:40;;;;;;;5.13;1.95;;;10.50;99.90;;;;;;4969451;28;20053;-79
2021/12/29 16:36:07;;;;;;;4.10;1.50;;;10.40;99.90;;;;;;4969984;28;20054;-81
2021/12/29 16:38:35;;;;;;;6.13;1.83;;;10.40;99.90;;;;;;4968235;28;20481;-81
2021/12/29 16:41:04;;;;;;;4.82;1.83;;;10.50;99.90;;;;;;4968342;28;20051;-80
2021/12/29 16:43:32;;;;;;;4.78;1.75;;;10.50;99.90;;;;;;4969008;28;20051;-80
2021/12/29 16:46:01;;;;;;;3.80;1.40;;;10.60;99.90;;;;;;4969315;28;20129;-81
2021/12/29 16:48:30;;;;;;;3.90;1.67;;;10.40;99.90;;;;;;4969648;28;20083;-80
2021/12/29 16:50:57;;;;;;;3.85;1.40;;;10.40;99.90;;;;;;4969766;28;20162;-80
2021/12/29 16:53:24;;;;;;;3.35;1.40;;;10.40;99.90;;;;;;4969614;28;20489;-81
2021/12/29 16:55:54;;;;;;;5.28;1.90;;;10.50;99.90;;;;;;4967894;28;20504;-80
2021/12/29 16:58:23;;;;;;;4.55;1.80;;;10.60;99.90;;;;;;4955433;28;20079;-80
2021/12/29 17:00:52;;;;;;;4.50;1.63;;;10.50;99.90;;;;;;4961541;28;20047;-82
2021/12/29 17:03:20;;;;;;;4.10;1.80;;;10.50;99.90;;;;;;4950244;29;20456;-83
2021/12/29 17:05:48;;;;;;;3.70;1.70;;;10.40;99.90;;;;;;4950634;29;20062;-84
2021/12/29 17:08:16;;;;;;;3.70;1.45;;;10.50;99.90;;;;;;4966756;28;20086;-82
2021/12/29 17:10:44;;;;;;;3.22;1.50;;;10.40;99.90;;;;;;4970317;28;20055;-85
2021/12/29 17:13:11;;;;;;;3.40;1.42;;;10.40;99.90;;;;;;4963921;28;20054;-84
2021/12/29 17:15:39;;;;;;;5.15;2.42;;;10.30;99.90;;;;;;4959642;28;20073;-86
2021/12/29 17:18:06;;;;;;;4.70;2.38;;;10.40;99.90;;;;;;4970023;28;20057;-86
2021/12/29 17:20:33;;;;;;;4.28;1.80;;;10.50;99.90;;;;;;4973335;28;20134;-86
2021/12/29 17:23:02;;;;;;;4.97;2.00;;;10.30;99.90;;;;;;4973264;28;20047;-85
2021/12/29 17:25:29;;;;;;;3.60;1.60;;;10.30;99.90;;;;;;4972901;28;20126;-87
2021/12/29 17:27:57;;;;;;;3.17;1.50;;;10.30;99.90;;;;;;4973021;28;20524;-85
2021/12/29 17:30:24;;;;;;;4.18;1.50;;;10.30;99.90;;;;;;4959675;28;20051;-86
2021/12/29 17:32:51;;;;;;;2.83;1.30;;;10.40;99.90;;;;;;4953739;29;20093;-82
2021/12/29 17:35:18;;;;;;;4.55;1.80;;;10.30;99.90;;;;;;4957364;28;20457;-82
2021/12/29 17:37:47;;;;;;;4.53;2.10;;;10.30;99.90;;;;;;4968632;28;20050;-81
2021/12/29 17:40:22;;;;;;;3.90;1.90;;;10.30;99.90;;;;;;4969906;28;20889;-81
2021/12/29 17:42:49;;;;;;;4.13;2.20;;;10.30;99.90;;;;;;4953626;29;20047;-80
2021/12/29 17:45:19;;;;;;;4.85;2.50;;;10.30;99.90;;;;;;4953037;29;20102;-81
2021/12/29 17:47:47;;;;;;;6.72;3.13;;;10.30;99.90;;;;;;4952779;28;20130;-80
2021/12/29 17:50:17;;;;;;;7.57;3.00;;;10.20;99.90;;;;;;4964132;28;20057;-80
2021/12/29 17:52:44;;;;;;;5.55;2.90;;;10.20;99.90;;;;;;4952767;29;20490;-80
2021/12/29 17:55:12;;;;;;;4.55;2.50;;;10.30;99.90;;;;;;4953139;28;20047;-80
2021/12/29 17:57:41;;;;;;;4.85;2.72;;;10.20;99.90;;;;;;4960448;28;20480;-81
2021/12/29 18:00:13;;;;;;;4.85;2.33;;;10.20;99.90;;;;;;4971980;28;20057;-81
2021/12/29 18:02:41;;;;;;;6.75;3.92;;;10.30;99.90;;;;;;4970680;28;20489;-81
2021/12/29 18:05:09;;;;;;;7.43;4.22;;;10.20;99.90;;;;;;4961058;28;20062;-80
2021/12/29 18:07:37;;;;;;;6.57;4.13;;;10.10;99.90;;;;;;4956893;28;20062;-79
2021/12/29 18:10:07;;;;;;;7.35;4.65;;;10.10;99.90;;;;;;4952886;29;20086;-80
2021/12/29 18:12:34;;;;;;;7.60;4.50;;;10.00;99.90;;;;;;4952466;29;20135;-81
2021/12/29 18:15:03;;;;;;;6.28;4.05;;;10.00;99.90;;;;;;4952921;29;20047;-80
2021/12/29 18:17:31;;;;;;;6.63;3.80;;;10.10;99.90;;;;;;4952245;28;20047;-80
2021/12/29 18:19:58;;;;;;;6.00;3.50;;;10.10;99.90;;;;;;4962241;28;20130;-81
2021/12/29 18:22:25;;;;;;;5.63;3.60;;;10.00;99.90;;;;;;4953424;28;20066;-81
2021/12/29 18:24:52;;;;;;;5.88;4.03;;;9.90;99.90;;;;;;4967388;28;20137;-81
2021/12/29 18:27:20;;;;;;;6.97;5.10;;;10.00;99.90;;;;;;4971891;28;20057;-81
2021/12/29 18:29:47;;;;;;;5.65;4.05;;;10.10;99.90;;;;;;4971659;28;20100;-80
2021/12/29 18:32:15;;;;;;;5.90;3.85;;;10.00;99.90;;;;;;4969164;28;20517;-80
2021/12/29 18:34:42;;;;;;;6.78;4.38;;;10.00;99.90;;;;;;4952154;29;20499;-81
2021/12/29 18:37:09;;;;;;;6.55;4.10;;;9.90;99.90;;;;;;4952200;28;20047;-80
2021/12/29 18:39:37;;;;;;;7.00;3.90;;;10.00;99.90;;;;;;4952121;28;20481;-80
2021/12/29 18:42:05;;;;;;;7.00;4.50;;;10.00;99.90;;;;;;4952699;28;20106;-78
2021/12/29 18:44:32;;;;;;;7.43;4.70;;;10.00;99.90;;;;;;4951948;28;20050;-82
2021/12/29 18:46:59;;;;;;;6.57;3.88;;;10.00;99.90;;;;;;4966468;28;20050;-81
2021/12/29 18:49:28;;;;;;;6.80;4.20;;;9.90;99.90;;;;;;4971334;28;20050;-79
2021/12/29 18:51:55;;;;;;;6.55;4.32;;;10.10;99.90;;;;;;4971117;28;20050;-80
2021/12/29 18:54:23;;;;;;;6.30;4.15;;;10.00;99.90;;;;;;4966623;28;20396;-83
2021/12/29 18:56:51;;;;;;;7.07;4.40;;;10.10;99.90;;;;;;4970484;28;20046;-82
2021/12/29 18:59:18;;;;;;;6.45;4.30;;;10.10;99.90;;;;;;4971008;28;20057;-82
2021/12/29 19:01:45;;;;;;;6.13;4.10;;;10.20;99.90;;;;;;4970973;28;20143;-80